sensor_id;sensor_type;location;lat;lon;timestamp;P1;durP1;ratioP1;P2;durP2;ratioP2
13202;SDS011;6666;51.626;7.530;2022-11-11T00:02:24;2.50;;;1.80;;
13202;SDS011;6666;51.626;7.530;2022-11-11T00:05:13;2.80;;;1.67;;
13202;SDS011;6666;51.626;7.530;2022-11-11T00:08:00;4.82;;;1.80;;
13202;SDS011;6666;51.626;7.530;2022-11-11T00:10:47;4.60;;;1.88;;
13202;SDS011;6666;51.626;7.530;2022-11-11T00:13:34;5.78;;;1.90;;
13202;SDS011;6666;51.626;7.530;2022-11-11T00:16:22;2.47;;;1.70;;
13202;SDS011;6666;51.626;7.530;2022-11-11T00:19:08;4.20;;;1.58;;
13202;SDS011;6666;51.626;7.530;2022-11-11T00:22:19;5.28;;;2.13;;
13202;SDS011;6666;51.626;7.530;2022-11-11T00:25:24;11.65;;;1.90;;
13202;SDS011;6666;51.626;7.530;2022-11-11T00:28:11;4.70;;;2.03;;
13202;SDS011;6666;51.626;7.530;2022-11-11T00:31:02;7.78;;;2.20;;
13202;SDS011;6666;51.626;7.530;2022-11-11T00:33:51;7.85;;;2.38;;
13202;SDS011;6666;51.626;7.530;2022-11-11T00:36:38;5.00;;;2.50;;
13202;SDS011;6666;51.626;7.530;2022-11-11T00:39:30;8.25;;;2.90;;
13202;SDS011;6666;51.626;7.530;2022-11-11T00:42:17;7.43;;;3.20;;
13202;SDS011;6666;51.626;7.530;2022-11-11T00:45:04;10.43;;;2.83;;
13202;SDS011;6666;51.626;7.530;2022-11-11T00:47:51;10.90;;;2.53;;
13202;SDS011;6666;51.626;7.530;2022-11-11T00:50:55;9.05;;;2.00;;
13202;SDS011;6666;51.626;7.530;2022-11-11T00:53:46;2.97;;;2.20;;
13202;SDS011;6666;51.626;7.530;2022-11-11T00:56:34;4.05;;;1.80;;
13202;SDS011;6666;51.626;7.530;2022-11-11T00:59:21;5.97;;;2.00;;
13202;SDS011;6666;51.626;7.530;2022-11-11T01:02:07;4.75;;;2.00;;
13202;SDS011;6666;51.626;7.530;2022-11-11T01:04:55;3.17;;;1.90;;
13202;SDS011;6666;51.626;7.530;2022-11-11T01:07:41;9.63;;;2.20;;
13202;SDS011;6666;51.626;7.530;2022-11-11T01:10:28;6.63;;;2.03;;
13202;SDS011;6666;51.626;7.530;2022-11-11T01:13:28;6.25;;;2.50;;
13202;SDS011;6666;51.626;7.530;2022-11-11T01:16:17;2.70;;;1.63;;
13202;SDS011;6666;51.626;7.530;2022-11-11T01:19:05;5.18;;;2.20;;
13202;SDS011;6666;51.626;7.530;2022-11-11T01:21:53;5.87;;;2.20;;
13202;SDS011;6666;51.626;7.530;2022-11-11T01:24:39;3.90;;;2.00;;
13202;SDS011;6666;51.626;7.530;2022-11-11T01:27:26;5.18;;;2.30;;
13202;SDS011;6666;51.626;7.530;2022-11-11T01:30:15;7.35;;;2.30;;
13202;SDS011;6666;51.626;7.530;2022-11-11T01:33:02;4.25;;;2.17;;
13202;SDS011;6666;51.626;7.530;2022-11-11T01:35:49;6.88;;;2.50;;
13202;SDS011;6666;51.626;7.530;2022-11-11T01:38:35;6.13;;;2.50;;
13202;SDS011;6666;51.626;7.530;2022-11-11T01:41:24;7.20;;;2.50;;
13202;SDS011;6666;51.626;7.530;2022-11-11T01:44:19;5.75;;;2.40;;
13202;SDS011;6666;51.626;7.530;2022-11-11T01:47:28;6.18;;;2.70;;
13202;SDS011;6666;51.626;7.530;2022-11-11T01:50:57;6.30;;;2.50;;
13202;SDS011;6666;51.626;7.530;2022-11-11T01:53:44;9.15;;;2.45;;
13202;SDS011;6666;51.626;7.530;2022-11-11T01:56:32;5.40;;;2.40;;
13202;SDS011;6666;51.626;7.530;2022-11-11T01:59:20;8.00;;;2.78;;
13202;SDS011;6666;51.626;7.530;2022-11-11T02:02:10;5.75;;;2.85;;
13202;SDS011;6666;51.626;7.530;2022-11-11T02:05:08;7.80;;;2.60;;
13202;SDS011;6666;51.626;7.530;2022-11-11T02:08:20;7.07;;;2.70;;
13202;SDS011;6666;51.626;7.530;2022-11-11T02:11:20;6.40;;;2.83;;
13202;SDS011;6666;51.626;7.530;2022-11-11T02:14:23;7.10;;;2.30;;
13202;SDS011;6666;51.626;7.530;2022-11-11T02:17:26;4.93;;;2.03;;
13202;SDS011;6666;51.626;7.530;2022-11-11T02:20:17;7.47;;;2.50;;
13202;SDS011;6666;51.626;7.530;2022-11-11T02:23:08;4.50;;;1.80;;
13202;SDS011;6666;51.626;7.530;2022-11-11T02:25:59;3.53;;;1.95;;
13202;SDS011;6666;51.626;7.530;2022-11-11T02:28:49;3.88;;;1.90;;
13202;SDS011;6666;51.626;7.530;2022-11-11T02:31:38;3.53;;;1.53;;
13202;SDS011;6666;51.626;7.530;2022-11-11T02:34:29;5.00;;;1.73;;
13202;SDS011;6666;51.626;7.530;2022-11-11T02:37:17;2.30;;;1.70;;
13202;SDS011;6666;51.626;7.530;2022-11-11T02:40:06;4.07;;;1.70;;
13202;SDS011;6666;51.626;7.530;2022-11-11T02:42:55;3.20;;;1.85;;
13202;SDS011;6666;51.626;7.530;2022-11-11T02:45:42;3.78;;;1.50;;
13202;SDS011;6666;51.626;7.530;2022-11-11T02:48:29;4.65;;;1.90;;
13202;SDS011;6666;51.626;7.530;2022-11-11T02:51:16;4.70;;;1.90;;
13202;SDS011;6666;51.626;7.530;2022-11-11T02:54:03;3.65;;;1.77;;
13202;SDS011;6666;51.626;7.530;2022-11-11T02:56:50;4.55;;;2.03;;
13202;SDS011;6666;51.626;7.530;2022-11-11T02:59:54;3.17;;;1.98;;
13202;SDS011;6666;51.626;7.530;2022-11-11T03:02:43;4.18;;;2.22;;
13202;SDS011;6666;51.626;7.530;2022-11-11T03:05:30;7.40;;;2.17;;
13202;SDS011;6666;51.626;7.530;2022-11-11T03:08:17;8.00;;;2.70;;
13202;SDS011;6666;51.626;7.530;2022-11-11T03:11:04;4.90;;;2.30;;
13202;SDS011;6666;51.626;7.530;2022-11-11T03:13:52;4.10;;;2.40;;
13202;SDS011;6666;51.626;7.530;2022-11-11T03:16:40;4.45;;;2.10;;
13202;SDS011;6666;51.626;7.530;2022-11-11T03:19:45;5.38;;;1.70;;
13202;SDS011;6666;51.626;7.530;2022-11-11T03:22:32;6.90;;;2.08;;
13202;SDS011;6666;51.626;7.530;2022-11-11T03:25:39;4.45;;;1.92;;
13202;SDS011;6666;51.626;7.530;2022-11-11T03:28:27;4.43;;;1.92;;
13202;SDS011;6666;51.626;7.530;2022-11-11T03:31:14;4.82;;;1.90;;
13202;SDS011;6666;51.626;7.530;2022-11-11T03:34:02;4.60;;;1.70;;
13202;SDS011;6666;51.626;7.530;2022-11-11T03:37:03;3.33;;;2.00;;
13202;SDS011;6666;51.626;7.530;2022-11-11T03:40:09;7.22;;;2.17;;
13202;SDS011;6666;51.626;7.530;2022-11-11T03:42:56;5.32;;;1.80;;
13202;SDS011;6666;51.626;7.530;2022-11-11T03:45:48;8.93;;;1.90;;
13202;SDS011;6666;51.626;7.530;2022-11-11T03:48:36;3.30;;;1.63;;
13202;SDS011;6666;51.626;7.530;2022-11-11T03:51:25;3.30;;;1.80;;
13202;SDS011;6666;51.626;7.530;2022-11-11T03:54:12;10.05;;;1.80;;
13202;SDS011;6666;51.626;7.530;2022-11-11T03:56:59;2.60;;;1.65;;
13202;SDS011;6666;51.626;7.530;2022-11-11T04:00:04;3.60;;;1.60;;
13202;SDS011;6666;51.626;7.530;2022-11-11T04:03:01;3.15;;;1.50;;
13202;SDS011;6666;51.626;7.530;2022-11-11T04:06:03;2.30;;;1.67;;
13202;SDS011;6666;51.626;7.530;2022-11-11T04:09:10;3.70;;;1.70;;
13202;SDS011;6666;51.626;7.530;2022-11-11T04:12:29;3.80;;;1.77;;
13202;SDS011;6666;51.626;7.530;2022-11-11T04:15:36;3.80;;;1.70;;
13202;SDS011;6666;51.626;7.530;2022-11-11T04:18:41;5.10;;;1.90;;
13202;SDS011;6666;51.626;7.530;2022-11-11T04:21:45;5.70;;;1.88;;
13202;SDS011;6666;51.626;7.530;2022-11-11T04:24:34;3.78;;;1.65;;
13202;SDS011;6666;51.626;7.530;2022-11-11T04:27:55;6.35;;;1.90;;
13202;SDS011;6666;51.626;7.530;2022-11-11T04:30:55;5.72;;;1.65;;
13202;SDS011;6666;51.626;7.530;2022-11-11T04:33:42;4.63;;;1.88;;
13202;SDS011;6666;51.626;7.530;2022-11-11T04:36:28;5.25;;;1.90;;
13202;SDS011;6666;51.626;7.530;2022-11-11T04:39:15;4.97;;;1.70;;
13202;SDS011;6666;51.626;7.530;2022-11-11T04:42:21;4.20;;;1.90;;
13202;SDS011;6666;51.626;7.530;2022-11-11T04:45:09;3.10;;;2.10;;
13202;SDS011;6666;51.626;7.530;2022-11-11T04:48:15;5.05;;;2.33;;
13202;SDS011;6666;51.626;7.530;2022-11-11T04:51:03;7.20;;;3.28;;
13202;SDS011;6666;51.626;7.530;2022-11-11T04:53:50;7.07;;;3.60;;
13202;SDS011;6666;51.626;7.530;2022-11-11T04:56:37;6.85;;;3.50;;
13202;SDS011;6666;51.626;7.530;2022-11-11T04:59:41;6.07;;;3.40;;
13202;SDS011;6666;51.626;7.530;2022-11-11T05:02:28;6.70;;;4.00;;
13202;SDS011;6666;51.626;7.530;2022-11-11T05:05:33;7.07;;;3.10;;
13202;SDS011;6666;51.626;7.530;2022-11-11T05:08:44;6.90;;;3.60;;
13202;SDS011;6666;51.626;7.530;2022-11-11T05:11:41;6.55;;;3.38;;
13202;SDS011;6666;51.626;7.530;2022-11-11T05:14:28;6.10;;;3.28;;
13202;SDS011;6666;51.626;7.530;2022-11-11T05:17:33;5.50;;;2.92;;
13202;SDS011;6666;51.626;7.530;2022-11-11T05:20:38;7.07;;;2.90;;
13202;SDS011;6666;51.626;7.530;2022-11-11T05:23:42;4.60;;;2.60;;
13202;SDS011;6666;51.626;7.530;2022-11-11T05:26:46;3.22;;;1.95;;
13202;SDS011;6666;51.626;7.530;2022-11-11T05:29:33;4.30;;;2.10;;
13202;SDS011;6666;51.626;7.530;2022-11-11T05:32:19;6.80;;;2.30;;
13202;SDS011;6666;51.626;7.530;2022-11-11T05:35:09;4.55;;;2.20;;
13202;SDS011;6666;51.626;7.530;2022-11-11T05:38:00;7.93;;;2.30;;
13202;SDS011;6666;51.626;7.530;2022-11-11T05:41:06;6.55;;;2.28;;
13202;SDS011;6666;51.626;7.530;2022-11-11T05:43:53;6.15;;;2.50;;
13202;SDS011;6666;51.626;7.530;2022-11-11T05:46:40;5.45;;;2.40;;
13202;SDS011;6666;51.626;7.530;2022-11-11T05:49:26;7.15;;;3.30;;
13202;SDS011;6666;51.626;7.530;2022-11-11T05:52:15;5.35;;;2.78;;
13202;SDS011;6666;51.626;7.530;2022-11-11T05:55:02;8.40;;;3.80;;
13202;SDS011;6666;51.626;7.530;2022-11-11T05:57:50;5.43;;;2.85;;
13202;SDS011;6666;51.626;7.530;2022-11-11T06:00:37;8.20;;;2.90;;
13202;SDS011;6666;51.626;7.530;2022-11-11T06:03:23;6.65;;;3.13;;
13202;SDS011;6666;51.626;7.530;2022-11-11T06:06:11;8.18;;;2.92;;
13202;SDS011;6666;51.626;7.530;2022-11-11T06:09:00;8.80;;;3.03;;
13202;SDS011;6666;51.626;7.530;2022-11-11T06:11:47;8.63;;;3.27;;
13202;SDS011;6666;51.626;7.530;2022-11-11T06:14:33;8.57;;;3.40;;
13202;SDS011;6666;51.626;7.530;2022-11-11T06:17:20;8.15;;;3.47;;
13202;SDS011;6666;51.626;7.530;2022-11-11T06:20:07;7.20;;;3.10;;
13202;SDS011;6666;51.626;7.530;2022-11-11T06:22:54;5.07;;;2.70;;
13202;SDS011;6666;51.626;7.530;2022-11-11T06:25:42;7.00;;;3.05;;
13202;SDS011;6666;51.626;7.530;2022-11-11T06:28:48;7.72;;;3.30;;
13202;SDS011;6666;51.626;7.530;2022-11-11T06:31:35;6.83;;;2.40;;
13202;SDS011;6666;51.626;7.530;2022-11-11T06:34:22;6.03;;;2.60;;
13202;SDS011;6666;51.626;7.530;2022-11-11T06:37:09;4.32;;;2.53;;
13202;SDS011;6666;51.626;7.530;2022-11-11T06:39:55;13.25;;;2.25;;
13202;SDS011;6666;51.626;7.530;2022-11-11T06:42:43;7.97;;;2.75;;
13202;SDS011;6666;51.626;7.530;2022-11-11T06:45:30;4.77;;;2.43;;
13202;SDS011;6666;51.626;7.530;2022-11-11T06:48:19;8.13;;;2.50;;
13202;SDS011;6666;51.626;7.530;2022-11-11T06:51:06;6.20;;;2.50;;
13202;SDS011;6666;51.626;7.530;2022-11-11T06:53:54;5.10;;;2.50;;
13202;SDS011;6666;51.626;7.530;2022-11-11T06:56:41;10.77;;;2.90;;
13202;SDS011;6666;51.626;7.530;2022-11-11T06:59:29;6.20;;;2.28;;
13202;SDS011;6666;51.626;7.530;2022-11-11T07:02:16;9.43;;;2.70;;
13202;SDS011;6666;51.626;7.530;2022-11-11T07:05:02;4.65;;;2.20;;
13202;SDS011;6666;51.626;7.530;2022-11-11T07:07:50;3.33;;;2.22;;
13202;SDS011;6666;51.626;7.530;2022-11-11T07:10:37;8.30;;;2.33;;
13202;SDS011;6666;51.626;7.530;2022-11-11T07:13:25;5.47;;;2.05;;
13202;SDS011;6666;51.626;7.530;2022-11-11T07:16:13;4.10;;;1.77;;
13202;SDS011;6666;51.626;7.530;2022-11-11T07:19:00;3.15;;;1.80;;
13202;SDS011;6666;51.626;7.530;2022-11-11T07:21:47;5.63;;;1.70;;
13202;SDS011;6666;51.626;7.530;2022-11-11T07:24:33;5.00;;;1.90;;
13202;SDS011;6666;51.626;7.530;2022-11-11T07:27:20;3.40;;;1.90;;
13202;SDS011;6666;51.626;7.530;2022-11-11T07:30:07;3.97;;;1.85;;
13202;SDS011;6666;51.626;7.530;2022-11-11T07:32:56;5.78;;;1.80;;
13202;SDS011;6666;51.626;7.530;2022-11-11T07:35:43;4.93;;;2.00;;
13202;SDS011;6666;51.626;7.530;2022-11-11T07:38:30;4.80;;;2.00;;
13202;SDS011;6666;51.626;7.530;2022-11-11T07:41:16;3.88;;;1.80;;
13202;SDS011;6666;51.626;7.530;2022-11-11T07:44:03;2.97;;;1.80;;
13202;SDS011;6666;51.626;7.530;2022-11-11T07:46:50;4.05;;;2.00;;
13202;SDS011;6666;51.626;7.530;2022-11-11T07:49:39;4.63;;;2.20;;
13202;SDS011;6666;51.626;7.530;2022-11-11T07:52:25;3.83;;;1.92;;
13202;SDS011;6666;51.626;7.530;2022-11-11T07:55:12;7.07;;;2.60;;
13202;SDS011;6666;51.626;7.530;2022-11-11T07:57:59;3.53;;;2.00;;
13202;SDS011;6666;51.626;7.530;2022-11-11T08:00:46;7.80;;;2.47;;
13202;SDS011;6666;51.626;7.530;2022-11-11T08:03:33;10.25;;;2.72;;
13202;SDS011;6666;51.626;7.530;2022-11-11T08:06:34;5.72;;;2.70;;
13202;SDS011;6666;51.626;7.530;2022-11-11T08:09:21;7.10;;;2.00;;
13202;SDS011;6666;51.626;7.530;2022-11-11T08:12:08;3.00;;;1.80;;
13202;SDS011;6666;51.626;7.530;2022-11-11T08:15:12;7.10;;;1.70;;
13202;SDS011;6666;51.626;7.530;2022-11-11T08:17:59;4.00;;;1.42;;
13202;SDS011;6666;51.626;7.530;2022-11-11T08:20:45;5.07;;;1.60;;
13202;SDS011;6666;51.626;7.530;2022-11-11T08:23:40;7.17;;;1.70;;
13202;SDS011;6666;51.626;7.530;2022-11-11T08:26:46;6.20;;;1.50;;
13202;SDS011;6666;51.626;7.530;2022-11-11T08:29:34;4.60;;;1.60;;
13202;SDS011;6666;51.626;7.530;2022-11-11T08:32:20;4.03;;;1.60;;
13202;SDS011;6666;51.626;7.530;2022-11-11T08:35:07;1.80;;;1.40;;
13202;SDS011;6666;51.626;7.530;2022-11-11T08:37:54;2.63;;;1.50;;
13202;SDS011;6666;51.626;7.530;2022-11-11T08:40:42;3.80;;;1.38;;
13202;SDS011;6666;51.626;7.530;2022-11-11T08:43:29;4.90;;;1.70;;
13202;SDS011;6666;51.626;7.530;2022-11-11T08:46:21;3.42;;;2.00;;
13202;SDS011;6666;51.626;7.530;2022-11-11T08:49:09;3.40;;;1.80;;
13202;SDS011;6666;51.626;7.530;2022-11-11T08:51:56;4.10;;;1.50;;
13202;SDS011;6666;51.626;7.530;2022-11-11T08:54:43;4.53;;;1.40;;
13202;SDS011;6666;51.626;7.530;2022-11-11T08:57:32;4.80;;;1.50;;
13202;SDS011;6666;51.626;7.530;2022-11-11T09:00:18;3.67;;;1.67;;
13202;SDS011;6666;51.626;7.530;2022-11-11T09:03:06;3.22;;;1.77;;
13202;SDS011;6666;51.626;7.530;2022-11-11T09:05:55;4.10;;;1.60;;
13202;SDS011;6666;51.626;7.530;2022-11-11T09:08:42;4.20;;;1.60;;
13202;SDS011;6666;51.626;7.530;2022-11-11T09:11:30;3.72;;;1.65;;
13202;SDS011;6666;51.626;7.530;2022-11-11T09:14:22;2.83;;;1.40;;
13202;SDS011;6666;51.626;7.530;2022-11-11T09:17:08;3.95;;;1.73;;
13202;SDS011;6666;51.626;7.530;2022-11-11T09:19:55;6.35;;;1.65;;
13202;SDS011;6666;51.626;7.530;2022-11-11T09:22:42;3.58;;;1.80;;
13202;SDS011;6666;51.626;7.530;2022-11-11T09:25:29;3.30;;;1.60;;
13202;SDS011;6666;51.626;7.530;2022-11-11T09:28:16;3.80;;;1.08;;
13202;SDS011;6666;51.626;7.530;2022-11-11T09:31:04;4.38;;;1.40;;
13202;SDS011;6666;51.626;7.530;2022-11-11T09:34:11;2.13;;;1.00;;
13202;SDS011;6666;51.626;7.530;2022-11-11T09:36:58;2.40;;;1.20;;
13202;SDS011;6666;51.626;7.530;2022-11-11T09:39:46;1.33;;;0.80;;
13202;SDS011;6666;51.626;7.530;2022-11-11T09:42:37;2.27;;;1.20;;
13202;SDS011;6666;51.626;7.530;2022-11-11T09:45:28;1.83;;;1.10;;
13202;SDS011;6666;51.626;7.530;2022-11-11T09:48:29;2.20;;;1.00;;
13202;SDS011;6666;51.626;7.530;2022-11-11T09:51:22;2.70;;;1.17;;
13202;SDS011;6666;51.626;7.530;2022-11-11T09:54:14;3.80;;;1.40;;
13202;SDS011;6666;51.626;7.530;2022-11-11T09:57:09;6.70;;;1.35;;
13202;SDS011;6666;51.626;7.530;2022-11-11T10:00:01;4.10;;;1.10;;
13202;SDS011;6666;51.626;7.530;2022-11-11T10:02:52;5.85;;;1.13;;
13202;SDS011;6666;51.626;7.530;2022-11-11T10:05:44;3.67;;;1.20;;
13202;SDS011;6666;51.626;7.530;2022-11-11T10:08:39;2.83;;;1.20;;
13202;SDS011;6666;51.626;7.530;2022-11-11T10:11:33;4.38;;;1.40;;
13202;SDS011;6666;51.626;7.530;2022-11-11T10:14:29;3.40;;;1.30;;
13202;SDS011;6666;51.626;7.530;2022-11-11T10:17:23;3.28;;;1.10;;
13202;SDS011;6666;51.626;7.530;2022-11-11T10:20:18;4.40;;;1.30;;
13202;SDS011;6666;51.626;7.530;2022-11-11T10:23:12;2.40;;;1.10;;
13202;SDS011;6666;51.626;7.530;2022-11-11T10:26:02;2.28;;;1.30;;
13202;SDS011;6666;51.626;7.530;2022-11-11T10:28:51;1.40;;;1.10;;
13202;SDS011;6666;51.626;7.530;2022-11-11T10:31:38;2.08;;;1.08;;
13202;SDS011;6666;51.626;7.530;2022-11-11T10:34:27;2.65;;;1.10;;
13202;SDS011;6666;51.626;7.530;2022-11-11T10:37:19;3.50;;;1.17;;
13202;SDS011;6666;51.626;7.530;2022-11-11T10:40:14;6.00;;;1.40;;
13202;SDS011;6666;51.626;7.530;2022-11-11T10:43:10;2.42;;;1.10;;
13202;SDS011;6666;51.626;7.530;2022-11-11T10:46:06;5.93;;;1.45;;
13202;SDS011;6666;51.626;7.530;2022-11-11T10:48:59;4.65;;;1.90;;
13202;SDS011;6666;51.626;7.530;2022-11-11T10:51:52;3.70;;;1.30;;
13202;SDS011;6666;51.626;7.530;2022-11-11T10:54:46;3.30;;;1.10;;
13202;SDS011;6666;51.626;7.530;2022-11-11T10:57:38;1.90;;;1.13;;
13202;SDS011;6666;51.626;7.530;2022-11-11T11:00:30;2.35;;;1.63;;
13202;SDS011;6666;51.626;7.530;2022-11-11T11:03:29;3.60;;;1.30;;
13202;SDS011;6666;51.626;7.530;2022-11-11T11:06:20;3.67;;;1.27;;
13202;SDS011;6666;51.626;7.530;2022-11-11T11:09:16;2.30;;;1.45;;
13202;SDS011;6666;51.626;7.530;2022-11-11T11:12:08;3.03;;;1.50;;
13202;SDS011;6666;51.626;7.530;2022-11-11T11:15:01;4.45;;;1.30;;
13202;SDS011;6666;51.626;7.530;2022-11-11T11:17:55;3.28;;;1.30;;
13202;SDS011;6666;51.626;7.530;2022-11-11T11:20:54;2.23;;;1.50;;
13202;SDS011;6666;51.626;7.530;2022-11-11T11:23:42;4.97;;;1.70;;
13202;SDS011;6666;51.626;7.530;2022-11-11T11:26:41;3.07;;;1.10;;
13202;SDS011;6666;51.626;7.530;2022-11-11T11:29:31;2.33;;;1.30;;
13202;SDS011;6666;51.626;7.530;2022-11-11T11:32:25;2.90;;;1.15;;
13202;SDS011;6666;51.626;7.530;2022-11-11T11:35:28;2.30;;;1.13;;
13202;SDS011;6666;51.626;7.530;2022-11-11T11:38:25;2.28;;;1.02;;
13202;SDS011;6666;51.626;7.530;2022-11-11T11:41:35;2.58;;;1.50;;
13202;SDS011;6666;51.626;7.530;2022-11-11T11:44:24;2.70;;;1.00;;
13202;SDS011;6666;51.626;7.530;2022-11-11T11:47:15;4.72;;;1.25;;
13202;SDS011;6666;51.626;7.530;2022-11-11T11:50:18;7.00;;;1.27;;
13202;SDS011;6666;51.626;7.530;2022-11-11T11:53:33;3.40;;;1.05;;
13202;SDS011;6666;51.626;7.530;2022-11-11T11:56:28;1.20;;;1.00;;
13202;SDS011;6666;51.626;7.530;2022-11-11T11:59:22;2.08;;;0.90;;
13202;SDS011;6666;51.626;7.530;2022-11-11T12:02:30;2.80;;;1.00;;
13202;SDS011;6666;51.626;7.530;2022-11-11T12:05:32;2.53;;;1.02;;
13202;SDS011;6666;51.626;7.530;2022-11-11T12:08:26;2.63;;;1.00;;
13202;SDS011;6666;51.626;7.530;2022-11-11T12:11:27;2.00;;;0.70;;
13202;SDS011;6666;51.626;7.530;2022-11-11T12:17:49;1.10;;;0.70;;
13202;SDS011;6666;51.626;7.530;2022-11-11T12:20:48;1.15;;;0.80;;
13202;SDS011;6666;51.626;7.530;2022-11-11T12:23:45;3.93;;;0.90;;
13202;SDS011;6666;51.626;7.530;2022-11-11T12:26:48;3.95;;;0.65;;
13202;SDS011;6666;51.626;7.530;2022-11-11T12:29:47;6.25;;;0.75;;
13202;SDS011;6666;51.626;7.530;2022-11-11T12:32:50;2.65;;;0.65;;
13202;SDS011;6666;51.626;7.530;2022-11-11T12:35:53;2.80;;;0.70;;
13202;SDS011;6666;51.626;7.530;2022-11-11T12:38:52;1.30;;;0.80;;
13202;SDS011;6666;51.626;7.530;2022-11-11T12:41:50;1.10;;;0.70;;
13202;SDS011;6666;51.626;7.530;2022-11-11T12:44:48;2.00;;;0.80;;
13202;SDS011;6666;51.626;7.530;2022-11-11T12:47:51;2.53;;;0.70;;
13202;SDS011;6666;51.626;7.530;2022-11-11T12:50:48;1.80;;;0.73;;
13202;SDS011;6666;51.626;7.530;2022-11-11T12:53:39;2.60;;;0.80;;
13202;SDS011;6666;51.626;7.530;2022-11-11T12:56:33;3.40;;;0.90;;
13202;SDS011;6666;51.626;7.530;2022-11-11T12:59:33;1.10;;;0.70;;
13202;SDS011;6666;51.626;7.530;2022-11-11T13:02:57;1.70;;;0.85;;
13202;SDS011;6666;51.626;7.530;2022-11-11T13:06:03;1.53;;;0.70;;
13202;SDS011;6666;51.626;7.530;2022-11-11T13:12:14;3.63;;;0.70;;
13202;SDS011;6666;51.626;7.530;2022-11-11T13:15:10;1.50;;;0.80;;
13202;SDS011;6666;51.626;7.530;2022-11-11T13:18:01;1.83;;;0.80;;
13202;SDS011;6666;51.626;7.530;2022-11-11T13:20:56;1.45;;;0.70;;
13202;SDS011;6666;51.626;7.530;2022-11-11T13:23:45;1.95;;;0.80;;
13202;SDS011;6666;51.626;7.530;2022-11-11T13:26:33;3.28;;;0.80;;
13202;SDS011;6666;51.626;7.530;2022-11-11T13:29:41;2.05;;;0.80;;
13202;SDS011;6666;51.626;7.530;2022-11-11T13:32:45;1.92;;;1.00;;
13202;SDS011;6666;51.626;7.530;2022-11-11T13:35:37;1.60;;;0.80;;
13202;SDS011;6666;51.626;7.530;2022-11-11T13:38:29;3.30;;;0.80;;
13202;SDS011;6666;51.626;7.530;2022-11-11T13:41:19;2.50;;;1.10;;
13202;SDS011;6666;51.626;7.530;2022-11-11T13:44:15;1.70;;;0.70;;
13202;SDS011;6666;51.626;7.530;2022-11-11T13:47:09;3.20;;;1.20;;
13202;SDS011;6666;51.626;7.530;2022-11-11T13:50:04;1.63;;;0.50;;
13202;SDS011;6666;51.626;7.530;2022-11-11T13:52:55;1.17;;;0.70;;
13202;SDS011;6666;51.626;7.530;2022-11-11T13:55:45;1.80;;;0.80;;
13202;SDS011;6666;51.626;7.530;2022-11-11T13:58:33;1.20;;;0.70;;
13202;SDS011;6666;51.626;7.530;2022-11-11T14:01:23;1.20;;;0.90;;
13202;SDS011;6666;51.626;7.530;2022-11-11T14:04:26;1.20;;;0.70;;
13202;SDS011;6666;51.626;7.530;2022-11-11T14:07:32;3.13;;;0.90;;
13202;SDS011;6666;51.626;7.530;2022-11-11T14:10:50;2.80;;;0.95;;
13202;SDS011;6666;51.626;7.530;2022-11-11T14:13:39;1.20;;;0.70;;
13202;SDS011;6666;51.626;7.530;2022-11-11T14:19:45;4.65;;;1.00;;
13202;SDS011;6666;51.626;7.530;2022-11-11T14:22:32;3.10;;;0.80;;
13202;SDS011;6666;51.626;7.530;2022-11-11T14:25:20;1.40;;;0.70;;
13202;SDS011;6666;51.626;7.530;2022-11-11T14:28:20;5.88;;;0.70;;
13202;SDS011;6666;51.626;7.530;2022-11-11T14:34:31;1.50;;;0.80;;
13202;SDS011;6666;51.626;7.530;2022-11-11T14:37:34;2.50;;;1.20;;
13202;SDS011;6666;51.626;7.530;2022-11-11T14:40:36;2.20;;;0.85;;
13202;SDS011;6666;51.626;7.530;2022-11-11T14:43:35;4.20;;;0.90;;
13202;SDS011;6666;51.626;7.530;2022-11-11T14:46:23;2.83;;;1.17;;
13202;SDS011;6666;51.626;7.530;2022-11-11T14:49:11;5.90;;;1.13;;
13202;SDS011;6666;51.626;7.530;2022-11-11T14:52:33;2.83;;;1.30;;
13202;SDS011;6666;51.626;7.530;2022-11-11T14:55:24;1.60;;;1.10;;
13202;SDS011;6666;51.626;7.530;2022-11-11T14:58:14;2.95;;;1.20;;
13202;SDS011;6666;51.626;7.530;2022-11-11T15:01:09;2.70;;;1.00;;
13202;SDS011;6666;51.626;7.530;2022-11-11T15:04:00;2.60;;;1.30;;
13202;SDS011;6666;51.626;7.530;2022-11-11T15:06:49;3.95;;;1.00;;
13202;SDS011;6666;51.626;7.530;2022-11-11T15:09:43;4.40;;;1.38;;
13202;SDS011;6666;51.626;7.530;2022-11-11T15:16:19;1.90;;;1.40;;
13202;SDS011;6666;51.626;7.530;2022-11-11T15:19:21;4.03;;;1.73;;
13202;SDS011;6666;51.626;7.530;2022-11-11T15:22:25;4.13;;;1.85;;
13202;SDS011;6666;51.626;7.530;2022-11-11T15:25:29;4.25;;;1.95;;
13202;SDS011;6666;51.626;7.530;2022-11-11T15:28:48;4.68;;;3.20;;
13202;SDS011;6666;51.626;7.530;2022-11-11T15:31:53;6.03;;;2.28;;
13202;SDS011;6666;51.626;7.530;2022-11-11T15:34:49;7.85;;;2.20;;
13202;SDS011;6666;51.626;7.530;2022-11-11T15:37:41;3.35;;;1.80;;
13202;SDS011;6666;51.626;7.530;2022-11-11T15:40:41;5.05;;;2.00;;
13202;SDS011;6666;51.626;7.530;2022-11-11T15:43:31;5.22;;;1.92;;
13202;SDS011;6666;51.626;7.530;2022-11-11T15:46:21;6.73;;;2.17;;
13202;SDS011;6666;51.626;7.530;2022-11-11T15:49:13;3.27;;;1.83;;
13202;SDS011;6666;51.626;7.530;2022-11-11T15:52:00;2.88;;;1.80;;
13202;SDS011;6666;51.626;7.530;2022-11-11T15:54:47;3.22;;;1.60;;
13202;SDS011;6666;51.626;7.530;2022-11-11T15:57:34;3.63;;;2.00;;
13202;SDS011;6666;51.626;7.530;2022-11-11T16:00:27;2.17;;;1.73;;
13202;SDS011;6666;51.626;7.530;2022-11-11T16:03:16;3.90;;;1.90;;
13202;SDS011;6666;51.626;7.530;2022-11-11T16:06:08;3.15;;;1.58;;
13202;SDS011;6666;51.626;7.530;2022-11-11T16:08:57;7.10;;;1.90;;
13202;SDS011;6666;51.626;7.530;2022-11-11T16:11:44;3.38;;;1.75;;
13202;SDS011;6666;51.626;7.530;2022-11-11T16:14:34;3.42;;;1.70;;
13202;SDS011;6666;51.626;7.530;2022-11-11T16:17:28;4.90;;;2.10;;
13202;SDS011;6666;51.626;7.530;2022-11-11T16:20:21;3.85;;;2.15;;
13202;SDS011;6666;51.626;7.530;2022-11-11T16:23:15;6.38;;;2.95;;
13202;SDS011;6666;51.626;7.530;2022-11-11T16:26:03;8.13;;;2.80;;
13202;SDS011;6666;51.626;7.530;2022-11-11T16:28:52;6.85;;;3.17;;
13202;SDS011;6666;51.626;7.530;2022-11-11T16:31:41;5.22;;;3.20;;
13202;SDS011;6666;51.626;7.530;2022-11-11T16:34:33;5.45;;;2.70;;
13202;SDS011;6666;51.626;7.530;2022-11-11T16:37:26;3.65;;;2.13;;
13202;SDS011;6666;51.626;7.530;2022-11-11T16:40:25;4.80;;;2.60;;
13202;SDS011;6666;51.626;7.530;2022-11-11T16:43:18;4.60;;;2.70;;
13202;SDS011;6666;51.626;7.530;2022-11-11T16:46:08;4.45;;;2.70;;
13202;SDS011;6666;51.626;7.530;2022-11-11T16:48:59;8.55;;;2.70;;
13202;SDS011;6666;51.626;7.530;2022-11-11T16:52:02;7.60;;;2.95;;
13202;SDS011;6666;51.626;7.530;2022-11-11T16:54:56;6.57;;;3.28;;
13202;SDS011;6666;51.626;7.530;2022-11-11T16:57:47;7.32;;;3.53;;
13202;SDS011;6666;51.626;7.530;2022-11-11T17:00:34;8.98;;;4.00;;
13202;SDS011;6666;51.626;7.530;2022-11-11T17:03:22;13.95;;;5.82;;
13202;SDS011;6666;51.626;7.530;2022-11-11T17:06:10;14.50;;;6.72;;
13202;SDS011;6666;51.626;7.530;2022-11-11T17:08:57;17.07;;;6.90;;
13202;SDS011;6666;51.626;7.530;2022-11-11T17:11:44;14.55;;;7.68;;
13202;SDS011;6666;51.626;7.530;2022-11-11T17:14:34;16.75;;;8.10;;
13202;SDS011;6666;51.626;7.530;2022-11-11T17:17:22;15.15;;;7.57;;
13202;SDS011;6666;51.626;7.530;2022-11-11T17:20:10;20.63;;;13.10;;
13202;SDS011;6666;51.626;7.530;2022-11-11T17:22:58;30.08;;;19.60;;
13202;SDS011;6666;51.626;7.530;2022-11-11T17:25:52;29.80;;;16.88;;
13202;SDS011;6666;51.626;7.530;2022-11-11T17:28:40;20.27;;;13.20;;
13202;SDS011;6666;51.626;7.530;2022-11-11T17:31:29;22.08;;;13.38;;
13202;SDS011;6666;51.626;7.530;2022-11-11T17:34:15;20.52;;;14.50;;
13202;SDS011;6666;51.626;7.530;2022-11-11T17:37:02;22.30;;;14.13;;
13202;SDS011;6666;51.626;7.530;2022-11-11T17:39:48;19.85;;;13.30;;
13202;SDS011;6666;51.626;7.530;2022-11-11T17:42:35;19.17;;;11.77;;
13202;SDS011;6666;51.626;7.530;2022-11-11T17:45:22;17.08;;;11.70;;
13202;SDS011;6666;51.626;7.530;2022-11-11T17:48:10;19.58;;;11.77;;
13202;SDS011;6666;51.626;7.530;2022-11-11T17:50:57;18.80;;;10.10;;
13202;SDS011;6666;51.626;7.530;2022-11-11T17:53:44;15.85;;;10.30;;